createdAt,value
2023-02-14T00:03:15.137Z,97650.34
2023-02-14T00:08:17.427Z,97642.75
2023-02-14T00:13:19.801Z,97651.44
2023-02-14T00:18:22.195Z,97662.78
2023-02-14T00:23:24.281Z,97660.84
2023-02-14T00:28:26.459Z,97644.53
2023-02-14T00:33:28.723Z,97613.63
2023-02-14T00:38:31.301Z,97617.06
2023-02-14T00:43:33.811Z,97608.25
2023-02-14T00:48:35.936Z,97634.47
2023-02-14T00:53:38.221Z,97598.56
2023-02-14T00:58:42.085Z,97602.84
2023-02-14T01:03:44.332Z,97592.31
2023-02-14T01:08:46.628Z,97613.91
2023-02-14T01:13:50.390Z,97571.66
2023-02-14T01:18:52.704Z,97584.13
2023-02-14T01:23:57.504Z,97572.25
2023-02-14T01:28:59.984Z,97591.22
2023-02-14T01:34:04.774Z,97577.41
2023-02-14T01:39:12.684Z,97535.13
2023-02-14T01:44:14.908Z,97572.09
2023-02-14T01:49:30.341Z,97542.66
2023-02-14T01:54:36.047Z,97562.63
2023-02-14T01:59:44.082Z,97521.47
2023-02-14T02:04:46.984Z,97542.94
2023-02-14T02:09:59.900Z,97525.41
2023-02-14T02:15:03.920Z,97502.25
2023-02-14T02:20:24.504Z,97502.44
2023-02-14T02:25:56.887Z,97456.22
2023-02-14T02:31:11.326Z,97497.13
2023-02-14T02:36:28.357Z,97480.94
2023-02-14T02:42:07.096Z,97466.97
2023-02-14T02:47:19.082Z,97491.13
2023-02-14T02:52:46.019Z,97488.31
2023-02-14T02:57:51.491Z,97471.31
2023-02-14T03:03:16.141Z,97459.63
2023-02-14T03:08:18.466Z,97487.19
2023-02-14T03:13:56.032Z,97495.81
2023-02-14T03:19:37.510Z,97483.72
2023-02-14T03:25:11.554Z,97469.06
2023-02-14T03:30:28.655Z,97464.97
2023-02-14T03:36:03.357Z,97418.19
2023-02-14T03:41:13.106Z,97423.81
2023-02-14T03:46:24.472Z,97399.97
2023-02-14T03:51:34.461Z,97406.13
2023-02-14T03:56:42.235Z,97426.75
2023-02-14T04:01:57.115Z,97399.56
2023-02-14T04:06:59.470Z,97419.34
2023-02-14T04:12:01.582Z,97407.50
2023-02-14T04:17:23.106Z,97340.97
2023-02-14T04:22:25.413Z,97349.94
2023-02-14T04:27:27.748Z,97341.66
2023-02-14T04:32:30.155Z,97371.63
2023-02-14T04:37:32.421Z,97356.16
2023-02-14T04:42:34.776Z,97343.28
2023-02-14T04:47:37.260Z,97377.91
2023-02-14T04:52:40.176Z,97377.47
2023-02-14T04:57:42.501Z,97338.59
2023-02-14T05:02:44.850Z,97335.91
2023-02-14T05:07:48.026Z,97333.53
2023-02-14T05:12:50.397Z,97364.84
2023-02-14T05:17:52.803Z,97339.97
2023-02-14T05:22:55.028Z,97337.47
2023-02-14T05:27:57.629Z,97353.00
2023-02-14T05:33:01.284Z,97346.16
2023-02-14T05:38:03.597Z,97382.19
2023-02-14T05:43:05.731Z,97377.88
2023-02-14T05:48:07.885Z,97344.38
2023-02-14T05:53:10.002Z,97376.16
2023-02-14T05:58:12.798Z,97370.16
2023-02-14T06:03:15.180Z,97371.00
2023-02-14T06:08:17.336Z,97362.31
2023-02-14T06:13:19.547Z,97383.72
2023-02-14T06:18:21.738Z,97359.53
2023-02-14T06:23:23.987Z,97395.41
2023-02-14T06:28:26.131Z,97372.03
2023-02-14T06:33:28.440Z,97378.88
2023-02-14T06:38:30.683Z,97355.53
2023-02-14T06:43:33.382Z,97375.13
2023-02-14T06:48:35.687Z,97368.06
2023-02-14T06:53:38.002Z,97396.97
2023-02-14T06:58:40.303Z,97378.00
2023-02-14T07:03:42.775Z,97370.13
2023-02-14T07:08:45.403Z,97354.56
2023-02-14T07:13:49.464Z,97399.06
2023-02-14T07:18:51.729Z,97353.63
2023-02-14T07:23:53.979Z,97365.75
2023-02-14T07:28:56.270Z,97412.94
2023-02-14T07:34:00.996Z,97396.59
2023-02-14T07:39:03.049Z,97398.75
2023-02-14T07:44:05.301Z,97420.31
2023-02-14T07:49:07.617Z,97412.09
2023-02-14T07:54:09.966Z,97403.59
2023-02-14T07:59:12.123Z,97386.00
2023-02-14T08:04:14.406Z,97391.50
2023-02-14T08:09:25.049Z,97397.28
2023-02-14T08:14:27.118Z,97396.22
2023-02-14T08:19:30.267Z,97401.75
2023-02-14T08:24:32.813Z,97404.66
2023-02-14T08:29:35.114Z,97393.06
2023-02-14T08:34:37.240Z,97386.13
2023-02-14T08:39:40.371Z,97411.16
2023-02-14T08:44:42.731Z,97383.81
2023-02-14T08:49:45.172Z,97373.00
2023-02-14T08:54:47.595Z,97381.25
2023-02-14T08:59:49.760Z,97367.16
2023-02-14T09:04:52.200Z,97362.41
2023-02-14T09:09:54.324Z,97342.34
2023-02-14T09:14:58.138Z,97354.94
2023-02-14T09:20:00.421Z,97339.47
2023-02-14T09:25:02.826Z,97345.63
2023-02-14T09:30:07.196Z,97327.97
2023-02-14T09:35:09.905Z,97316.22
2023-02-14T09:40:19.535Z,97335.22
2023-02-14T09:45:27.007Z,97332.91
2023-02-14T09:50:50.389Z,97347.41
2023-02-14T09:56:04.702Z,97321.94
2023-02-14T10:01:23.869Z,97342.38
2023-02-14T10:07:03.840Z,97341.16
2023-02-14T10:12:15.141Z,97330.44
2023-02-14T10:17:21.001Z,97329.66
2023-02-14T10:22:45.376Z,97322.16
2023-02-14T10:27:48.510Z,97319.88
2023-02-14T10:33:02.261Z,97281.03
2023-02-14T10:38:40.941Z,97312.09
2023-02-14T10:43:58.259Z,97322.72
2023-02-14T10:49:16.522Z,97323.97
2023-02-14T10:54:32.950Z,97328.81
2023-02-14T11:00:02.746Z,97338.25
2023-02-14T11:05:06.459Z,97334.31
2023-02-14T11:10:14.458Z,97313.28
2023-02-14T11:15:36.256Z,97301.16
2023-02-14T11:20:39.808Z,97312.69
2023-02-14T11:25:42.819Z,97322.66
2023-02-14T11:30:47.941Z,97297.00
2023-02-14T11:35:53.938Z,97262.22
2023-02-14T11:40:59.358Z,97286.75
2023-02-14T11:46:09.288Z,97281.59
2023-02-14T11:51:16.974Z,97256.34
2023-02-14T11:56:21.370Z,97250.00
2023-02-14T12:01:26.592Z,97254.03
2023-02-14T12:06:35.287Z,97248.19
2023-02-14T12:11:38.195Z,97229.28
2023-02-14T12:16:52.289Z,97239.63
2023-02-14T12:22:00.875Z,97247.16
2023-02-14T12:27:28.642Z,97258.41
2023-02-14T12:32:32.536Z,97241.31
2023-02-14T12:37:46.940Z,97227.53
2023-02-14T12:43:24.731Z,97255.00
2023-02-14T12:48:29.710Z,97264.22
2023-02-14T12:54:00.509Z,97237.72
2023-02-14T12:59:24.024Z,97265.53
2023-02-14T13:04:58.736Z,97266.88
2023-02-14T13:10:14.913Z,97241.41
2023-02-14T13:15:43.563Z,97242.56
2023-02-14T13:20:59.242Z,97244.44
2023-02-14T13:26:10.671Z,97249.78
2023-02-14T13:31:12.897Z,97245.41
2023-02-14T13:36:16.063Z,97227.09
2023-02-14T13:41:20.484Z,97218.50
2023-02-14T13:46:45.371Z,97248.25
2023-02-14T13:51:51.451Z,97210.47
2023-02-14T13:56:53.793Z,97214.38
2023-02-14T14:01:56.477Z,97201.41
2023-02-14T14:07:04.816Z,97223.88
2023-02-14T14:12:28.419Z,97222.31
2023-02-14T14:17:36.302Z,97206.88
2023-02-14T14:22:56.882Z,97208.91
2023-02-14T14:28:00.618Z,97215.88
2023-02-14T14:33:29.701Z,97204.75
2023-02-14T14:38:35.093Z,97207.34
2023-02-14T14:43:40.096Z,97201.38
2023-02-14T14:48:51.681Z,97200.56
2023-02-14T14:54:18.920Z,97204.94
2023-02-14T14:59:29.838Z,97212.94
2023-02-14T15:04:35.526Z,97200.78
2023-02-14T15:09:37.919Z,97196.72
2023-02-14T15:14:43.905Z,97197.50
2023-02-14T15:19:51.147Z,97196.09
2023-02-14T15:24:53.833Z,97188.47
2023-02-14T15:30:09.161Z,97211.59
2023-02-14T15:35:12.768Z,97157.78
2023-02-14T15:40:22.887Z,97170.69
2023-02-14T15:45:28.246Z,97223.97
2023-02-14T15:50:34.027Z,97187.03
2023-02-14T15:55:36.986Z,97209.19
2023-02-14T16:00:39.241Z,97221.19
2023-02-14T16:05:47.604Z,97195.47
2023-02-14T16:11:14.930Z,97232.22
2023-02-14T16:16:17.474Z,97216.97
2023-02-14T16:21:26.217Z,97246.94
2023-02-14T16:26:28.367Z,97258.22
2023-02-14T16:31:30.595Z,97254.00
2023-02-14T16:36:35.038Z,97247.13
2023-02-14T16:41:42.236Z,97248.97
2023-02-14T16:46:45.741Z,97255.31
2023-02-14T16:51:48.141Z,97253.56
2023-02-14T16:56:56.322Z,97258.06
2023-02-14T17:02:00.186Z,97280.28
2023-02-14T17:07:06.123Z,97255.56
2023-02-14T17:12:15.036Z,97272.03
2023-02-14T17:17:18.007Z,97281.38
2023-02-14T17:22:20.806Z,97281.38
2023-02-14T17:27:22.903Z,97263.44
2023-02-14T17:32:25.177Z,97263.50
2023-02-14T17:37:27.503Z,97258.44
2023-02-14T17:42:34.351Z,97282.38
2023-02-14T17:47:36.740Z,97267.69
